Time;durP1;ratioP1;P1;durP2;ratioP2;P2;SDS_P1;SDS_P2;PMS_P1;PMS_P2;Temp;Humidity;BMP_temperature;BMP_pressure;BME280_temperature;BME280_humidity;BME280_pressure;Samples;Min_cycle;Max_cycle;Signal;HPM_P1;HPM_P2
2023/03/11 00:00:46;;;;;;;0.10;0.10;;;2.30;99.90;23.90;98677.00;;;;5122331;27;20204;-72
2023/03/11 00:03:17;;;;;;;0.10;0.10;;;2.20;99.90;23.90;98655.00;;;;5108495;27;20211;-72
2023/03/11 00:05:47;;;;;;;0.10;0.10;;;2.10;99.90;23.80;98751.00;;;;5115808;27;20211;-73
2023/03/11 00:08:18;;;;;;;0.10;0.10;;;1.90;1.00;23.70;98625.00;;;;5107076;27;20658;-72
2023/03/11 00:10:52;;;;;;;0.10;0.10;;;1.80;99.90;23.70;98728.00;;;;5123742;27;20192;-72
2023/03/11 00:13:20;;;;;;;0.10;0.10;;;1.70;99.90;23.70;98753.00;;;;5110845;27;20678;-72
2023/03/11 00:15:54;;;;;;;0.10;0.10;;;1.80;99.90;23.70;98805.00;;;;5118886;27;20216;-72
2023/03/11 00:18:25;;;;;;;0.10;0.10;;;1.80;99.90;23.70;98821.00;;;;5110008;27;20192;-72
2023/03/11 00:20:57;;;;;;;0.10;0.10;;;1.80;99.90;23.70;98815.00;;;;5121044;27;20200;-71
2023/03/11 00:23:26;;;;;;;0.10;0.10;;;1.80;99.90;23.70;98832.00;;;;5113997;27;20215;-71
2023/03/11 00:25:54;;;;;;;0.10;0.10;;;1.80;99.90;23.70;98850.00;;;;5118688;27;20245;-71
2023/03/11 00:28:24;;;;;;;0.10;0.10;;;1.80;99.90;23.70;98878.00;;;;5111386;27;20187;-72
2023/03/11 00:30:53;;;;;;;0.10;0.10;;;1.80;99.90;23.60;98818.00;;;;5119659;27;20208;-72
2023/03/11 00:33:21;;;;;;;0.10;0.10;;;1.70;99.90;23.70;98998.00;;;;5102449;27;20213;-72
2023/03/11 00:35:50;;;;;;;0.10;0.10;;;1.80;99.90;23.60;98934.00;;;;5114168;27;20188;-72
2023/03/11 00:38:22;;;;;;;0.10;0.10;;;1.80;99.90;23.60;98879.00;;;;5113528;27;20203;-72
2023/03/11 00:40:50;;;;;;;0.10;0.10;;;1.70;99.90;23.60;98981.00;;;;5111865;27;20192;-72
2023/03/11 00:43:18;;;;;;;0.10;0.10;;;1.70;99.90;23.60;98964.00;;;;5115706;27;20216;-72
2023/03/11 00:45:46;;;;;;;0.10;0.10;;;1.70;99.90;23.60;98968.00;;;;5123467;27;20192;-72
2023/03/11 00:48:15;;;;;;;0.10;0.10;;;1.80;99.90;23.60;98959.00;;;;5110377;27;20195;-72
2023/03/11 00:50:43;;;;;;;0.10;0.10;;;1.80;99.90;23.60;98987.00;;;;5115906;27;20279;-72
2023/03/11 00:53:12;;;;;;;0.10;0.10;;;1.70;99.90;23.70;98976.00;;;;5116979;27;20216;-72
2023/03/11 00:55:41;;;;;;;0.10;0.10;;;1.70;99.90;23.70;98964.00;;;;5111508;27;20563;-72
2023/03/11 00:58:12;;;;;;;0.20;0.20;;;1.80;99.90;23.60;98980.00;;;;5123302;27;20260;-72
2023/03/11 01:00:58;;;;;;;0.10;0.10;;;1.80;99.90;23.60;99039.00;;;;5120855;27;20280;-72
2023/03/11 01:03:26;;;;;;;0.10;0.10;;;1.80;99.90;23.60;99049.00;;;;5120372;27;20546;-73
2023/03/11 01:05:54;;;;;;;0.10;0.10;;;1.80;99.90;23.60;99082.00;;;;5119945;27;20205;-72
2023/03/11 01:08:25;;;;;;;0.10;0.10;;;1.80;99.90;23.50;99531.00;;;;5118019;27;20216;-72
2023/03/11 01:10:56;;;;;;;0.10;0.10;;;1.70;99.90;23.60;99351.00;;;;5127743;27;20192;-72
2023/03/11 01:13:24;;;;;;;0.10;0.10;;;1.80;99.90;23.60;99297.00;;;;5123230;27;20212;-72
2023/03/11 01:15:53;;;;;;;0.10;0.10;;;1.80;99.90;23.60;99384.00;;;;5118195;27;20196;-72
2023/03/11 01:18:21;;;;;;;0.10;0.10;;;1.70;99.90;23.50;99241.00;;;;5108787;27;20701;-72
2023/03/11 01:20:49;;;;;;;0.10;0.10;;;1.60;99.90;23.50;99314.00;;;;5116051;27;20205;-73
2023/03/11 01:23:20;;;;;;;0.10;0.10;;;1.60;99.90;23.50;99283.00;;;;5120099;27;20224;-73
2023/03/11 01:25:48;;;;;;;0.10;0.10;;;1.50;99.90;23.40;99390.00;;;;5113107;27;20258;-73
2023/03/11 01:28:17;;;;;;;0.10;0.10;;;1.50;99.90;23.40;99305.00;;;;5117491;27;20192;-72
2023/03/11 01:30:45;;;;;;;0.10;0.10;;;1.50;99.90;23.40;99612.00;;;;5121283;27;20256;-72
2023/03/11 01:33:17;;;;;;;0.10;0.10;;;1.40;99.90;23.40;99173.00;;;;5103255;27;20212;-72
2023/03/11 01:35:47;;;;;;;0.10;0.10;;;1.40;99.90;23.40;99206.00;;;;5113535;27;20200;-72
2023/03/11 01:38:16;;;;;;;0.10;0.10;;;1.40;99.90;23.30;99297.00;;;;5113427;27;20743;-72
2023/03/11 01:40:46;;;;;;;0.10;0.10;;;1.40;99.90;23.40;98982.00;;;;5129446;27;20248;-71
2023/03/11 01:43:47;;;;;;;0.20;0.20;;;1.40;99.90;23.40;99017.00;;;;5098754;27;20222;-72
2023/03/11 01:46:22;;;;;;;0.20;0.20;;;1.40;99.90;23.40;99005.00;;;;5118432;27;20620;-72
2023/03/11 01:48:53;;;;;;;0.20;0.20;;;1.40;99.90;23.40;99050.00;;;;5108361;27;20231;-71
2023/03/11 01:51:28;;;;;;;0.10;0.10;;;1.40;99.90;23.40;99016.00;;;;5113923;27;20192;-71
2023/03/11 01:54:00;;;;;;;0.10;0.10;;;1.40;99.90;23.30;99075.00;;;;5119442;27;20583;-73
2023/03/11 01:56:28;;;;;;;0.10;0.10;;;1.40;99.90;23.40;99092.00;;;;5110902;27;20199;-72
2023/03/11 01:58:59;;;;;;;0.10;0.10;;;1.40;99.90;23.40;99149.00;;;;5113332;27;20250;-72
2023/03/11 02:01:28;;;;;;;0.10;0.10;;;1.40;99.90;23.40;99117.00;;;;5117001;27;20199;-72
2023/03/11 02:03:59;;;;;;;0.10;0.10;;;1.40;99.90;23.40;99147.00;;;;5104831;27;20217;-72
2023/03/11 02:06:28;;;;;;;0.10;0.10;;;1.40;99.90;23.40;99203.00;;;;5120920;27;20194;-72
2023/03/11 02:08:56;;;;;;;0.10;0.10;;;1.40;99.90;23.40;99740.00;;;;5113429;27;20615;-72
2023/03/11 02:11:29;;;;;;;0.10;0.10;;;1.40;99.90;23.30;99822.00;;;;5115682;27;20192;-72
2023/03/11 02:14:04;;;;;;;0.10;0.10;;;1.40;99.90;23.30;99957.00;;;;5108179;27;20227;-72
2023/03/11 02:16:32;;;;;;;0.10;0.10;;;1.40;99.90;23.30;99436.00;;;;5118964;27;20624;-72
2023/03/11 02:19:15;;;;;;;0.10;0.10;;;1.40;99.90;23.30;99467.00;;;;5110543;27;20225;-72
2023/03/11 02:21:44;;;;;;;0.10;0.10;;;1.40;99.90;23.40;99458.00;;;;5111860;28;20244;-72
2023/03/11 02:24:20;;;;;;;0.20;0.20;;;1.40;99.90;23.40;99452.00;;;;5111954;27;20218;-72
2023/03/11 02:26:55;;;;;;;0.10;0.10;;;1.50;99.90;23.40;99480.00;;;;5112429;27;20204;-72
2023/03/11 02:29:27;;;;;;;0.10;0.10;;;1.50;99.90;23.50;99480.00;;;;5117720;27;20241;-72
2023/03/11 02:31:59;;;;;;;0.10;0.10;;;1.60;99.90;23.50;99581.00;;;;5113175;27;20197;-72
2023/03/11 02:34:30;;;;;;;0.10;0.10;;;1.60;99.90;23.50;99441.00;;;;5119939;28;20584;-71
2023/03/11 02:37:00;;;;;;;0.10;0.10;;;1.60;99.90;23.50;99509.00;;;;5115627;28;20287;-72
2023/03/11 02:39:31;;;;;;;0.10;0.10;;;1.70;99.90;23.50;99660.00;;;;5118042;27;20249;-71
2023/03/11 02:42:07;;;;;;;0.10;0.10;;;1.70;99.90;23.50;99684.00;;;;5114329;28;20196;-71
2023/03/11 02:44:35;;;;;;;0.10;0.10;;;1.70;99.90;23.50;99484.00;;;;5115869;28;20220;-72
2023/03/11 02:47:03;;;;;;;0.10;0.10;;;1.70;99.90;23.50;99474.00;;;;5116423;28;20223;-72
2023/03/11 02:49:33;;;;;;;0.10;0.10;;;1.70;99.90;23.50;99487.00;;;;5109121;27;20218;-72
2023/03/11 02:52:01;;;;;;;0.10;0.10;;;1.70;99.90;23.50;99508.00;;;;5114143;28;20189;-72
2023/03/11 02:54:30;;;;;;;0.10;0.10;;;1.70;99.90;23.50;99469.00;;;;5102983;28;20608;-71
2023/03/11 02:56:58;;;;;;;0.10;0.10;;;1.70;99.90;23.50;99527.00;;;;5116630;28;20283;-71
2023/03/11 02:59:29;;;;;;;0.10;0.10;;;1.70;99.90;23.60;99756.00;;;;5104712;28;20205;-72
2023/03/11 03:01:58;;;;;;;0.10;0.10;;;1.70;99.90;23.60;99570.00;;;;5124681;28;20196;-72
2023/03/11 03:04:27;;;;;;;0.10;0.10;;;1.70;99.90;23.50;99550.00;;;;5118616;27;20308;-72
2023/03/11 03:06:56;;;;;;;0.10;0.10;;;1.70;99.90;23.50;99555.00;;;;5109787;28;20193;-72
2023/03/11 03:09:24;;;;;;;0.10;0.10;;;1.70;99.90;23.60;99652.00;;;;5107487;28;20204;-72
2023/03/11 03:11:52;;;;;;;0.10;0.10;;;1.80;99.90;23.50;99554.00;;;;5112948;28;20256;-71
2023/03/11 03:14:20;;;;;;;0.13;0.13;;;1.70;99.90;23.50;99572.00;;;;5121519;27;20258;-71
2023/03/11 03:16:50;;;;;;;0.10;0.10;;;1.70;99.90;23.50;99683.00;;;;5123001;28;20223;-72
2023/03/11 03:19:18;;;;;;;0.10;0.10;;;1.70;99.90;23.50;99498.00;;;;5110750;28;20292;-72
2023/03/11 03:21:46;;;;;;;0.10;0.10;;;1.70;99.90;23.50;99506.00;;;;5118841;28;20202;-72
2023/03/11 03:24:14;;;;;;;0.10;0.10;;;1.70;99.90;23.40;99523.00;;;;5107790;28;20223;-72
2023/03/11 03:26:42;;;;;;;0.17;0.17;;;1.70;99.90;23.50;99182.00;;;;5113849;28;20199;-72
2023/03/11 03:29:10;;;;;;;0.10;0.10;;;1.70;99.90;23.60;99159.00;;;;5118815;27;20245;-71
2023/03/11 03:31:39;;;;;;;0.10;0.10;;;1.70;99.90;23.50;99137.00;;;;5115634;28;20723;-71
2023/03/11 03:34:09;;;;;;;0.10;0.10;;;1.60;99.90;23.50;99123.00;;;;5113562;28;20220;-72
2023/03/11 03:36:38;;;;;;;0.10;0.10;;;1.60;99.90;23.60;99161.00;;;;5108575;28;20695;-72
2023/03/11 03:39:06;;;;;;;0.10;0.10;;;1.60;99.90;23.50;99135.00;;;;5114342;28;20238;-72
2023/03/11 03:41:37;;;;;;;0.10;0.10;;;1.60;99.90;23.50;99145.00;;;;5118919;28;20726;-72
2023/03/11 03:44:06;;;;;;;0.10;0.10;;;1.60;99.90;23.50;99119.00;;;;5114570;28;20224;-71
2023/03/11 03:46:37;;;;;;;0.10;0.10;;;1.50;99.90;23.50;99156.00;;;;5117980;27;20646;-72
2023/03/11 03:49:06;;;;;;;0.10;0.10;;;1.60;99.90;23.50;99148.00;;;;5114107;27;20208;-72
2023/03/11 03:51:36;;;;;;;0.10;0.10;;;1.50;99.90;23.50;99172.00;;;;5119659;27;20217;-72
2023/03/11 03:54:10;;;;;;;0.10;0.10;;;1.50;99.90;23.50;99197.00;;;;5111365;27;20226;-72
2023/03/11 03:56:38;;;;;;;0.10;0.10;;;1.60;99.90;23.60;99210.00;;;;5123054;27;20764;-72
2023/03/11 03:59:06;;;;;;;0.10;0.10;;;1.60;99.90;23.60;99228.00;;;;5118637;27;20255;-72
2023/03/11 04:01:39;;;;;;;0.10;0.10;;;1.80;99.90;23.60;99244.00;;;;5121359;27;20628;-72
2023/03/11 04:04:07;;;;;;;0.10;0.10;;;1.70;99.90;23.50;99183.00;;;;5115582;27;20551;-72
2023/03/11 04:06:37;;;;;;;0.10;0.10;;;1.60;99.90;23.50;99196.00;;;;5118154;27;20203;-72
2023/03/11 04:09:07;;;;;;;0.10;0.10;;;1.60;99.90;23.60;99229.00;;;;5131996;27;20207;-72
2023/03/11 04:11:35;;;;;;;0.10;0.10;;;1.70;99.90;23.50;99189.00;;;;5122147;27;20234;-71
2023/03/11 04:14:05;;;;;;;0.10;0.10;;;1.60;99.90;23.50;99214.00;;;;5116915;27;20225;-71
2023/03/11 04:16:38;;;;;;;0.10;0.10;;;1.50;99.90;23.50;99179.00;;;;5121557;27;20252;-71
2023/03/11 04:19:11;;;;;;;0.10;0.10;;;1.60;99.90;23.40;99116.00;;;;5126046;27;20283;-72
2023/03/11 04:21:41;;;;;;;0.10;0.10;;;1.50;99.90;23.40;99162.00;;;;5118796;27;20207;-70
2023/03/11 04:24:09;;;;;;;0.10;0.10;;;1.50;99.90;23.40;99176.00;;;;5118835;27;20614;-71
2023/03/11 04:26:39;;;;;;;0.10;0.10;;;1.50;99.90;23.30;99134.00;;;;5122808;27;20295;-70
2023/03/11 04:29:11;;;;;;;0.10;0.10;;;1.30;99.90;23.40;99185.00;;;;5124623;27;20611;-70
2023/03/11 04:31:43;;;;;;;0.10;0.10;;;1.40;99.90;23.40;99153.00;;;;5117454;27;20224;-71
2023/03/11 04:34:12;;;;;;;0.10;0.10;;;1.40;99.90;23.40;99176.00;;;;5126866;27;20635;-71
2023/03/11 04:36:42;;;;;;;0.10;0.10;;;1.40;99.90;23.40;99154.00;;;;5111178;27;20201;-72
2023/03/11 04:39:12;;;;;;;0.10;0.10;;;1.40;99.90;23.30;99104.00;;;;5116277;27;20216;-72
2023/03/11 04:41:43;;;;;;;0.10;0.10;;;1.30;99.90;23.40;99144.00;;;;5112946;27;20224;-72
2023/03/11 04:44:15;;;;;;;0.10;0.10;;;1.30;99.90;23.40;99156.00;;;;5120767;27;20690;-71
2023/03/11 04:46:43;;;;;;;0.20;0.20;;;1.40;99.90;23.40;99191.00;;;;5127792;27;20197;-71
2023/03/11 04:49:12;;;;;;;0.10;0.10;;;1.40;99.90;23.40;99162.00;;;;5110578;27;20201;-72
2023/03/11 04:51:42;;;;;;;0.20;0.20;;;1.40;99.90;23.50;99254.00;;;;5123074;27;20293;-71
2023/03/11 04:54:11;;;;;;;0.10;0.10;;;1.50;99.90;23.40;99225.00;;;;5115421;27;20280;-72
2023/03/11 04:56:39;;;;;;;0.10;0.10;;;1.50;99.90;23.40;99170.00;;;;5120830;27;20215;-71
2023/03/11 04:59:08;;;;;;;0.10;0.10;;;1.40;99.90;23.30;99175.00;;;;5110180;27;20219;-71
2023/03/11 05:01:38;;;;;;;0.10;0.10;;;1.30;99.90;23.30;99181.00;;;;5142419;27;20244;-71
2023/03/11 05:04:08;;;;;;;0.10;0.10;;;1.30;99.90;23.30;99196.00;;;;5115774;27;20273;-70
2023/03/11 05:06:36;;;;;;;0.10;0.10;;;1.20;99.90;23.40;99218.00;;;;5115576;27;20211;-71
2023/03/11 05:09:06;;;;;;;0.10;0.10;;;1.30;99.90;23.40;99272.00;;;;5114082;27;20201;-71
2023/03/11 05:11:37;;;;;;;0.10;0.10;;;1.40;99.90;23.30;99201.00;;;;5107831;27;20203;-72
2023/03/11 05:14:05;;;;;;;0.10;0.10;;;1.30;99.90;23.40;99240.00;;;;5111172;27;20249;-72
2023/03/11 05:16:33;;;;;;;0.10;0.10;;;1.40;99.90;23.40;99253.00;;;;5116490;27;20903;-72
2023/03/11 05:19:29;;;;;;;0.10;0.10;;;1.40;99.90;23.40;99270.00;;;;5117658;27;20764;-72
2023/03/11 05:21:52;;;;;;;0.10;0.10;;;1.40;99.90;23.40;99326.00;;;;5119388;27;20200;-72
2023/03/11 05:24:24;;;;;;;0.10;0.10;;;1.40;99.90;23.50;99368.00;;;;5115947;27;20303;-72
2023/03/11 05:26:52;;;;;;;0.10;0.10;;;1.60;99.90;23.50;99352.00;;;;5117194;27;20201;-72
2023/03/11 05:29:21;;;;;;;0.10;0.10;;;1.70;99.90;23.40;99307.00;;;;5119524;27;20196;-72
2023/03/11 05:31:49;;;;;;;0.10;0.10;;;1.50;99.90;23.30;99265.00;;;;5115847;27;20613;-71
2023/03/11 05:34:17;;;;;;;0.10;0.10;;;1.40;99.90;23.40;99324.00;;;;5125427;27;20614;-72
2023/03/11 05:36:46;;;;;;;0.10;0.10;;;1.40;99.90;23.40;99330.00;;;;5113018;27;20241;-72
2023/03/11 05:39:14;;;;;;;0.13;0.13;;;1.40;99.90;23.30;99299.00;;;;5114971;27;20209;-72
2023/03/11 05:41:44;;;;;;;0.10;0.10;;;1.20;99.90;23.30;99322.00;;;;5120794;27;20211;-72
2023/03/11 05:44:12;;;;;;;0.10;0.10;;;1.20;99.90;23.20;99260.00;;;;5115757;27;20224;-72
2023/03/11 05:46:40;;;;;;;0.10;0.10;;;1.10;99.90;23.30;99259.00;;;;5121781;27;20204;-72
2023/03/11 05:49:09;;;;;;;0.10;0.10;;;1.20;99.90;23.30;99337.00;;;;5110407;27;20196;-72
2023/03/11 05:51:37;;;;;;;0.10;0.10;;;1.20;99.90;23.30;99334.00;;;;5119714;27;20220;-72
2023/03/11 05:54:10;;;;;;;0.10;0.10;;;1.20;99.90;23.30;99259.00;;;;5110686;27;20328;-72
2023/03/11 05:56:40;;;;;;;0.10;0.10;;;1.20;99.90;23.40;99348.00;;;;5115079;27;20197;-72
2023/03/11 05:59:11;;;;;;;0.10;0.10;;;1.30;99.90;23.30;99329.00;;;;5118425;27;20531;-72
2023/03/11 06:01:43;;;;;;;0.10;0.10;;;1.30;99.90;23.30;99394.00;;;;5107986;27;20200;-72
2023/03/11 06:04:12;;;;;;;0.20;0.20;;;1.30;99.90;23.40;99340.00;;;;5129661;27;20512;-72
2023/03/11 06:06:41;;;;;;;0.10;0.10;;;1.40;99.90;23.30;99330.00;;;;5110411;27;20220;-71
2023/03/11 06:09:12;;;;;;;0.10;0.10;;;1.30;99.90;23.30;99407.00;;;;5118124;27;20224;-71
2023/03/11 06:11:42;;;;;;;0.10;0.10;;;1.10;99.90;23.20;99319.00;;;;5117401;27;20290;-71
2023/03/11 06:14:14;;;;;;;0.10;0.10;;;1.10;99.90;23.30;99433.00;;;;5120498;27;20207;-71
2023/03/11 06:16:44;;;;;;;0.10;0.10;;;1.20;99.90;23.20;99264.00;;;;5115855;27;20642;-71
2023/03/11 06:19:13;;;;;;;0.10;0.10;;;1.10;99.90;23.30;99453.00;;;;5110519;27;20213;-72
2023/03/11 06:21:46;;;;;;;0.20;0.20;;;1.10;99.90;23.20;99395.00;;;;5103244;28;20690;-71
2023/03/11 06:24:16;;;;;;;0.10;0.10;;;1.00;99.90;23.10;99408.00;;;;5119864;27;20220;-71
2023/03/11 06:26:45;;;;;;;0.10;0.10;;;1.00;99.90;23.20;99435.00;;;;5114836;28;20575;-71
2023/03/11 06:29:17;;;;;;;0.10;0.10;;;1.10;99.90;23.20;99476.00;;;;5113421;27;20691;-71
2023/03/11 06:31:47;;;;;;;0.20;0.20;;;1.00;99.90;23.20;99546.00;;;;5107759;28;20612;-71
2023/03/11 06:34:15;;;;;;;0.10;0.10;;;1.00;99.90;23.20;99555.00;;;;5123838;27;20850;-71
2023/03/11 06:36:43;;;;;;;0.10;0.10;;;1.00;99.90;23.20;99537.00;;;;5106449;28;20718;-71
2023/03/11 06:39:14;;;;;;;0.20;0.20;;;1.00;99.90;23.30;99623.00;;;;5124319;28;20282;-71
2023/03/11 06:41:43;;;;;;;0.10;0.10;;;1.10;99.90;23.30;99642.00;;;;5115022;28;20291;-71
2023/03/11 06:44:13;;;;;;;0.10;0.10;;;1.20;99.90;23.30;99685.00;;;;5126185;27;20219;-71
2023/03/11 06:46:43;;;;;;;0.10;0.10;;;1.20;99.90;23.30;100116.00;;;;5119135;28;20283;-72
2023/03/11 06:49:12;;;;;;;0.10;0.10;;;1.30;99.90;23.20;99783.00;;;;5107855;28;20230;-72
2023/03/11 06:51:41;;;;;;;0.17;0.17;;;1.20;99.90;23.30;99963.00;;;;5117106;27;20200;-72
2023/03/11 06:54:11;;;;;;;0.10;0.10;;;1.30;99.90;23.20;99854.00;;;;5106310;28;20215;-72
2023/03/11 06:56:39;;;;;;;0.20;0.20;;;1.20;99.90;23.20;99970.00;;;;5116020;28;20204;-72
2023/03/11 06:59:09;;;;;;;0.20;0.20;;;1.20;99.90;23.30;100009.00;;;;5112075;28;20183;-72
2023/03/11 07:01:37;;;;;;;0.10;0.10;;;1.30;99.90;23.30;100042.00;;;;5125340;28;20195;-71
2023/03/11 07:04:10;;;;;;;0.10;0.10;;;1.30;99.90;23.20;100221.00;;;;5112844;28;20207;-72
2023/03/11 07:06:42;;;;;;;0.10;0.10;;;1.30;99.90;23.20;100038.00;;;;5102811;28;20298;-73
2023/03/11 07:09:21;;;;;;;0.10;0.10;;;1.30;99.90;23.30;99937.00;;;;5115149;28;20288;-73
2023/03/11 07:11:49;;;;;;;0.10;0.10;;;1.20;99.90;23.30;100228.00;;;;5114881;28;20249;-72
2023/03/11 07:14:24;;;;;;;0.10;0.10;;;1.30;99.90;23.20;100192.00;;;;5114587;28;20309;-72
2023/03/11 07:16:55;;;;;;;0.10;0.10;;;1.20;99.90;23.30;100099.00;;;;5109171;28;20246;-72
2023/03/11 07:19:30;;;;;;;0.10;0.10;;;1.30;99.90;23.30;100388.00;;;;5120042;27;20201;-72
2023/03/11 07:21:59;;;;;;;0.10;0.10;;;1.40;99.90;23.40;100043.00;;;;5125927;27;20613;-72
2023/03/11 07:24:27;;;;;;;0.10;0.10;;;1.40;99.90;23.30;100016.00;;;;5124015;27;20620;-72
2023/03/11 07:26:56;;;;;;;0.10;0.10;;;1.30;99.90;23.30;100055.00;;;;5114094;27;20283;-71
2023/03/11 07:29:24;;;;;;;0.10;0.10;;;1.20;99.90;23.30;100068.00;;;;5121274;27;20241;-71
2023/03/11 07:31:52;;;;;;;0.10;0.10;;;1.30;99.90;23.30;100142.00;;;;5112511;27;20668;-71
2023/03/11 07:34:20;;;;;;;0.10;0.10;;;1.30;99.90;23.40;100000.00;;;;5124153;27;20209;-72
2023/03/11 07:36:49;;;;;;;0.10;0.10;;;1.50;99.90;23.50;100001.00;;;;5105134;27;20201;-70
2023/03/11 07:39:18;;;;;;;0.20;0.20;;;1.50;99.90;23.40;100018.00;;;;5124074;27;20193;-72
2023/03/11 07:41:47;;;;;;;0.10;0.10;;;1.50;99.90;23.40;100015.00;;;;5110432;27;20660;-71
2023/03/11 07:44:16;;;;;;;0.10;0.10;;;1.50;99.90;23.50;100145.00;;;;5121377;27;20273;-72
2023/03/11 07:46:46;;;;;;;0.10;0.10;;;1.60;99.90;23.40;100122.00;;;;5117488;27;20211;-71
2023/03/11 07:49:14;;;;;;;0.10;0.10;;;1.50;99.90;23.50;100028.00;;;;5103092;27;20204;-71
2023/03/11 07:51:43;;;;;;;0.10;0.10;;;1.60;99.90;23.40;99980.00;;;;5120130;27;20197;-71
2023/03/11 07:54:13;;;;;;;0.10;0.10;;;1.50;99.90;23.40;99960.00;;;;5110599;27;20215;-71
2023/03/11 07:56:41;;;;;;;0.10;0.10;;;1.40;99.90;23.50;100018.00;;;;5104627;27;20207;-72
2023/03/11 07:59:09;;;;;;;0.10;0.10;;;1.60;99.90;23.60;100059.00;;;;5113577;27;20593;-71
2023/03/11 08:01:39;;;;;;;0.10;0.10;;;1.80;99.90;23.70;100090.00;;;;5125150;27;20324;-71
2023/03/11 08:04:10;;;;;;;0.10;0.10;;;1.80;99.90;23.60;100191.00;;;;5114401;27;20600;-71
2023/03/11 08:06:43;;;;;;;0.10;0.10;;;1.80;99.90;23.60;100107.00;;;;5112905;27;20229;-71
2023/03/11 08:09:13;;;;;;;0.10;0.10;;;1.80;99.90;23.50;100177.00;;;;5115340;27;20200;-71
2023/03/11 08:11:41;;;;;;;0.10;0.10;;;1.70;99.90;23.50;100257.00;;;;5115547;27;20199;-71
2023/03/11 08:14:10;;;;;;;0.10;0.10;;;1.60;99.90;23.50;100274.00;;;;5122260;27;20598;-71
2023/03/11 08:16:40;;;;;;;0.10;0.10;;;1.60;99.90;23.60;99993.00;;;;5124065;27;20195;-72
2023/03/11 08:19:11;;;;;;;0.10;0.10;;;1.70;99.90;23.60;99818.00;;;;5122963;27;20237;-71
2023/03/11 08:21:39;;;;;;;0.10;0.10;;;1.70;99.90;23.70;99862.00;;;;5127402;27;20300;-72
2023/03/11 08:24:10;;;;;;;0.10;0.10;;;1.80;99.90;23.70;99899.00;;;;5112973;27;20796;-71
2023/03/11 08:26:40;;;;;;;0.10;0.10;;;1.80;99.90;23.60;100315.00;;;;5115754;27;20248;-71
2023/03/11 08:29:08;;;;;;;0.10;0.10;;;1.80;99.90;23.50;99984.00;;;;5121984;27;20269;-71
2023/03/11 08:31:36;;;;;;;0.10;0.10;;;1.70;99.90;23.60;100003.00;;;;5116850;27;20200;-71
2023/03/11 08:34:11;;;;;;;0.10;0.10;;;1.80;99.90;23.60;100088.00;;;;5124756;27;20220;-71
2023/03/11 08:36:39;;;;;;;0.10;0.10;;;1.80;99.90;23.60;100089.00;;;;5098691;27;20318;-72
2023/03/11 08:39:07;;;;;;;0.10;0.10;;;1.80;99.90;23.60;100126.00;;;;5121327;27;20200;-71
2023/03/11 08:41:36;;;;;;;0.10;0.10;;;1.80;99.90;23.70;100171.00;;;;5113979;27;20255;-72
2023/03/11 08:44:06;;;;;;;0.10;0.10;;;1.90;99.90;23.80;100010.00;;;;5130619;27;20223;-71
2023/03/11 08:46:37;;;;;;;0.10;0.10;;;2.10;99.90;23.90;99932.00;;;;5116742;27;20203;-71
2023/03/11 08:49:06;;;;;;;0.10;0.10;;;2.20;99.90;24.00;99927.00;;;;5109642;27;20275;-71
2023/03/11 08:51:36;;;;;;;0.10;0.10;;;2.30;99.90;23.90;99868.00;;;;5123997;27;20223;-72
2023/03/11 08:54:05;;;;;;;0.10;0.10;;;2.30;99.90;24.00;99925.00;;;;5112336;27;20223;-71
2023/03/11 08:56:33;;;;;;;0.10;0.10;;;2.30;99.90;24.10;99910.00;;;;5123405;27;20215;-71
2023/03/11 08:59:01;;;;;;;0.10;0.10;;;2.40;99.90;24.20;99901.00;;;;5115643;27;20200;-71
2023/03/11 09:01:30;;;;;;;0.10;0.10;;;2.50;99.90;24.00;99842.00;;;;5124537;27;20272;-71
2023/03/11 09:03:58;;;;;;;0.10;0.10;;;2.40;99.90;24.10;99876.00;;;;5110647;27;20217;-72
2023/03/11 09:06:29;;;;;;;0.10;0.10;;;2.50;99.90;24.10;99886.00;;;;5120212;27;20195;-73
2023/03/11 09:08:57;;;;;;;0.10;0.10;;;2.50;99.90;24.10;99853.00;;;;5115509;27;20247;-72
2023/03/11 09:11:25;;;;;;;0.10;0.10;;;2.40;99.90;24.30;99968.00;;;;5120596;27;20233;-73
2023/03/11 09:13:53;;;;;;;0.10;0.10;;;2.60;99.90;24.30;99856.00;;;;5112725;27;20644;-73
2023/03/11 09:16:23;;;;;;;0.10;0.10;;;2.70;99.90;24.30;99794.00;;;;5119275;27;20252;-72
2023/03/11 09:18:52;;;;;;;0.10;0.10;;;2.70;99.90;24.30;99844.00;;;;5120248;27;20189;-72
2023/03/11 09:21:21;;;;;;;0.10;0.10;;;2.70;99.90;24.30;99920.00;;;;5112322;27;20220;-72
2023/03/11 09:23:49;;;;;;;0.10;0.10;;;2.70;99.90;24.40;99721.00;;;;5108475;27;20242;-72
2023/03/11 09:26:17;;;;;;;0.10;0.10;;;2.80;99.90;24.30;99696.00;;;;5121489;27;20622;-71
2023/03/11 09:28:47;;;;;;;0.10;0.10;;;2.70;99.90;24.10;99871.00;;;;5120744;27;20195;-72
2023/03/11 09:31:17;;;;;;;0.10;0.10;;;2.70;99.90;24.20;99732.00;;;;5122276;27;20232;-72
2023/03/11 09:33:46;;;;;;;0.10;0.10;;;2.70;99.90;24.10;99773.00;;;;5112933;27;20281;-71
2023/03/11 09:36:19;;;;;;;0.10;0.10;;;2.60;99.90;24.10;99894.00;;;;5116461;27;20700;-72
2023/03/11 09:38:48;;;;;;;0.10;0.10;;;2.50;99.90;24.20;100052.00;;;;5121519;27;20292;-72
2023/03/11 09:41:34;;;;;;;0.10;0.10;;;2.60;99.90;24.20;100039.00;;;;5118321;27;20253;-72
2023/03/11 09:44:26;;;;;;;0.10;0.10;;;2.70;99.90;24.10;99954.00;;;;5116927;27;20239;-72
2023/03/11 09:47:40;;;;;;;0.10;0.10;;;2.40;99.90;24.30;99846.00;;;;5116097;27;20228;-72
2023/03/11 09:50:30;;;;;;;0.10;0.10;;;2.60;99.90;24.30;99967.00;;;;5103552;27;20198;-72
2023/03/11 09:53:17;;;;;;;0.10;0.10;;;2.80;99.90;24.30;99912.00;;;;5114359;27;20216;-73
2023/03/11 09:55:50;;;;;;;0.10;0.10;;;2.70;99.90;24.20;99931.00;;;;5122476;27;20294;-72
2023/03/11 09:58:35;;;;;;;0.10;0.10;;;2.60;99.90;24.20;100006.00;;;;5111086;27;20230;-72
2023/03/11 10:01:13;;;;;;;0.10;0.10;;;2.60;99.90;24.20;100194.00;;;;5120725;27;20185;-72
2023/03/11 10:03:43;;;;;;;0.10;0.10;;;2.60;99.90;24.30;100061.00;;;;5113902;27;20226;-72
2023/03/11 10:06:17;;;;;;;0.10;0.10;;;2.80;99.90;24.30;100059.00;;;;5117211;27;20236;-72
2023/03/11 10:09:01;;;;;;;0.10;0.10;;;2.80;99.90;24.20;100057.00;;;;5110126;27;20605;-72
2023/03/11 10:11:57;;;;;;;0.10;0.10;;;2.70;99.90;24.00;100014.00;;;;5102655;27;20240;-72
2023/03/11 10:15:01;;;;;;;0.10;0.10;;;2.50;99.90;23.90;99963.00;;;;5112741;27;20261;-72
2023/03/11 10:18:10;;;;;;;0.10;0.10;;;2.20;99.90;23.90;100001.00;;;;5113504;27;20188;-72
2023/03/11 10:20:53;;;;;;;0.10;0.10;;;2.20;99.90;23.80;100000.00;;;;5108302;27;20205;-72
2023/03/11 10:23:32;;;;;;;0.10;0.10;;;2.10;99.90;23.90;100023.00;;;;5107415;27;20617;-72
2023/03/11 10:26:13;;;;;;;0.10;0.10;;;2.20;99.90;24.00;100008.00;;;;5121184;27;20232;-72
2023/03/11 10:28:48;;;;;;;0.10;0.10;;;2.30;99.90;24.00;100027.00;;;;5112095;27;20225;-72
2023/03/11 10:31:23;;;;;;;0.10;0.10;;;2.40;99.90;24.20;100081.00;;;;5093571;28;20598;-72
2023/03/11 10:34:00;;;;;;;0.10;0.10;;;2.60;99.90;24.30;100117.00;;;;5118381;28;20226;-72
2023/03/11 10:36:42;;;;;;;0.10;0.10;;;2.70;99.90;24.20;100029.00;;;;5106383;28;20210;-73
2023/03/11 10:39:11;;;;;;;0.10;0.10;;;2.60;99.90;24.30;100077.00;;;;5123372;28;20623;-72
2023/03/11 10:41:47;;;;;;;0.10;0.10;;;2.80;99.90;24.30;100056.00;;;;5097080;28;20262;-73
2023/03/11 10:44:20;;;;;;;0.10;0.10;;;2.80;99.90;24.30;100055.00;;;;5117889;28;20216;-73
2023/03/11 10:46:48;;;;;;;0.10;0.10;;;2.80;99.90;24.20;100036.00;;;;5114008;27;20208;-72
2023/03/11 10:49:18;;;;;;;0.10;0.10;;;2.60;99.90;24.30;100083.00;;;;5111045;27;20727;-72
2023/03/11 10:51:49;;;;;;;0.10;0.10;;;2.70;99.90;24.40;100096.00;;;;5118994;27;20201;-72
2023/03/11 10:54:30;;;;;;;0.10;0.10;;;2.80;99.90;24.40;100135.00;;;;5105110;27;20216;-72
2023/03/11 10:57:02;;;;;;;0.10;0.10;;;3.00;99.90;24.50;100132.00;;;;5123545;27;20198;-72
2023/03/11 10:59:33;;;;;;;0.10;0.10;;;3.00;99.90;24.40;100112.00;;;;5115487;27;20196;-72
2023/03/11 11:02:04;;;;;;;0.10;0.10;;;3.00;99.90;24.40;100119.00;;;;5127341;27;20243;-72
2023/03/11 11:04:38;;;;;;;0.10;0.10;;;3.00;99.90;24.50;100142.00;;;;5121374;27;20232;-71
2023/03/11 11:07:30;;;;;;;0.10;0.10;;;3.00;99.90;24.40;100122.00;;;;5109681;27;20560;-71
2023/03/11 11:10:18;;;;;;;0.10;0.10;;;3.00;99.90;24.40;100126.00;;;;5114182;27;20201;-71
2023/03/11 11:12:57;;;;;;;0.10;0.10;;;2.90;99.90;24.30;100086.00;;;;5123048;27;20254;-72
2023/03/11 11:15:30;;;;;;;0.10;0.10;;;2.80;99.90;24.10;100018.00;;;;5106228;27;20223;-72
2023/03/11 11:18:01;;;;;;;0.10;0.10;;;2.60;99.90;24.20;100101.00;;;;5121851;27;20207;-71